Elk Horn, Idaho
Current Conditions -  °F | °C
As of 6:47 AM on Monday 26 Jan 2015 (Local Time) from KSUN Reporting Station
Few Clouds Few Clouds  
Wind Chill: -8°   Ceiling: Unl
Heat Index: -2°   Visibility: 10mi
Dew Point: -4°   Wind: 12mph
Humidity: 86%   Direction: 300°WNW
Pressure: 30.39"   Gusts: NA
Location:  43.6966°N, 114.35°W
Report Text: KSUN 261347Z 30010KT 10SM FEW130 M02/M04 A3039
Loading
Personal Weather Stations






























Interactive Weather Map New forecast layout! Learn more

10-Day Weather Forecast

Advertisements
Track Severe Weather on mobile